createdAt,value
2018-10-02T00:00:59.213Z,21
2018-10-02T00:02:04.687Z,21
2018-10-02T00:03:09.308Z,21
2018-10-02T00:04:14.614Z,21
2018-10-02T00:05:20.112Z,21
2018-10-02T00:06:24.727Z,21
2018-10-02T00:07:30.365Z,21
2018-10-02T00:08:35.798Z,21
2018-10-02T00:09:41.488Z,21
2018-10-02T00:10:46.351Z,21
2018-10-02T00:11:51.568Z,21
2018-10-02T00:12:56.979Z,21
2018-10-02T00:14:01.947Z,21
2018-10-02T00:15:07.170Z,21
2018-10-02T00:16:12.579Z,21
2018-10-02T00:17:17.800Z,21
2018-10-02T00:18:23.271Z,21
2018-10-02T00:19:43.074Z,21
2018-10-02T00:20:47.946Z,21
2018-10-02T00:21:53.488Z,21
2018-10-02T00:22:58.952Z,21
2018-10-02T00:24:04.386Z,21
2018-10-02T00:25:09.713Z,21
2018-10-02T00:26:15.022Z,21
2018-10-02T00:27:19.916Z,21
2018-10-02T00:28:25.639Z,21
2018-10-02T00:29:30.790Z,21
2018-10-02T00:30:36.092Z,21
2018-10-02T00:31:41.584Z,21
2018-10-02T00:32:46.812Z,21
2018-10-02T00:33:52.843Z,21
2018-10-02T00:34:58.274Z,21
2018-10-02T00:36:03.485Z,21
2018-10-02T00:37:09.228Z,21
2018-10-02T00:38:14.395Z,21
2018-10-02T00:39:19.615Z,21
2018-10-02T00:40:25.391Z,21
2018-10-02T00:41:30.557Z,21
2018-10-02T00:42:36.059Z,21
2018-10-02T00:43:41.501Z,21
2018-10-02T00:44:46.652Z,21
2018-10-02T00:45:51.831Z,21
2018-10-02T00:46:57.360Z,21
2018-10-02T00:48:02.217Z,21
2018-10-02T00:49:07.669Z,21
2018-10-02T00:50:13.159Z,21
2018-10-02T00:51:18.594Z,21
2018-10-02T00:52:24.140Z,21
2018-10-02T00:53:29.649Z,21
2018-10-02T00:54:35.220Z,21
2018-10-02T00:55:40.473Z,21
2018-10-02T00:56:45.682Z,21
2018-10-02T00:57:51.389Z,21
2018-10-02T00:58:56.245Z,21
2018-10-02T01:00:01.715Z,21
2018-10-02T01:01:07.414Z,21
2018-10-02T01:02:12.388Z,21
2018-10-02T01:03:17.660Z,21
2018-10-02T01:04:23.073Z,21
2018-10-02T01:05:28.581Z,21
2018-10-02T01:06:34.267Z,21
2018-10-02T01:07:39.185Z,21
2018-10-02T01:08:44.462Z,21
2018-10-02T01:09:50.001Z,21
2018-10-02T01:10:55.502Z,21
2018-10-02T01:12:00.960Z,21
2018-10-02T01:13:06.008Z,21
2018-10-02T01:14:10.376Z,21
2018-10-02T01:15:15.272Z,21
2018-10-02T01:16:21.059Z,21
2018-10-02T01:17:25.977Z,21
2018-10-02T01:18:31.561Z,21
2018-10-02T01:19:37.089Z,21
2018-10-02T01:20:42.229Z,21
2018-10-02T01:21:48.254Z,21
2018-10-02T01:22:53.196Z,21
2018-10-02T01:23:58.338Z,21
2018-10-02T01:25:03.301Z,21
2018-10-02T01:26:08.178Z,21
2018-10-02T01:27:13.066Z,21
2018-10-02T01:28:19.021Z,21
2018-10-02T01:29:24.170Z,21
2018-10-02T01:30:29.455Z,21
2018-10-02T01:31:34.884Z,21
2018-10-02T01:32:40.109Z,21
2018-10-02T01:33:45.936Z,21
2018-10-02T01:34:51.515Z,21
2018-10-02T01:35:57.021Z,21
2018-10-02T01:37:02.522Z,21
2018-10-02T01:38:07.683Z,21
2018-10-02T01:39:13.216Z,21
2018-10-02T01:40:19.004Z,21
2018-10-02T01:41:24.510Z,21
2018-10-02T01:42:30.287Z,21
2018-10-02T01:43:35.200Z,21
2018-10-02T01:44:40.715Z,21
2018-10-02T01:45:46.619Z,21
2018-10-02T01:46:52.098Z,21
2018-10-02T01:47:57.584Z,21
2018-10-02T01:49:02.718Z,21
2018-10-02T01:50:07.295Z,21
2018-10-02T01:51:12.053Z,21
2018-10-02T01:52:17.753Z,21
2018-10-02T01:53:23.275Z,21
2018-10-02T01:54:29.058Z,21
2018-10-02T01:55:33.931Z,21
2018-10-02T01:56:39.367Z,21
2018-10-02T01:57:45.292Z,21
2018-10-02T01:58:50.469Z,21
2018-10-02T01:59:55.922Z,21
2018-10-02T02:01:01.801Z,21
2018-10-02T02:02:06.242Z,21
2018-10-02T02:03:11.447Z,21
2018-10-02T02:04:16.740Z,21
2018-10-02T02:05:22.256Z,21
2018-10-02T02:06:28.218Z,21
2018-10-02T02:07:33.427Z,21
2018-10-02T02:08:38.562Z,21
2018-10-02T02:09:44.263Z,21
2018-10-02T02:10:49.705Z,21
2018-10-02T02:11:54.865Z,21
2018-10-02T02:12:59.581Z,21
2018-10-02T02:14:04.173Z,21
2018-10-02T02:15:09.320Z,21
2018-10-02T02:16:15.066Z,21
2018-10-02T02:17:20.614Z,21
2018-10-02T02:18:27.097Z,21
2018-10-02T02:19:31.678Z,21
2018-10-02T02:20:37.032Z,21
2018-10-02T02:21:42.278Z,21
2018-10-02T02:22:47.713Z,21
2018-10-02T02:23:52.966Z,21
2018-10-02T02:24:58.377Z,21
2018-10-02T02:26:03.625Z,21
2018-10-02T02:27:08.784Z,21
2018-10-02T02:28:14.234Z,21
2018-10-02T02:29:19.662Z,21
2018-10-02T02:30:24.885Z,21
2018-10-02T02:31:44.788Z,21
2018-10-02T02:32:50.311Z,21
2018-10-02T02:33:55.590Z,21
2018-10-02T02:35:01.114Z,21
2018-10-02T02:36:05.782Z,21
2018-10-02T02:37:11.664Z,21
2018-10-02T02:38:16.807Z,21
2018-10-02T02:39:21.969Z,21
2018-10-02T02:40:27.424Z,21
2018-10-02T02:41:32.628Z,21
2018-10-02T02:42:37.895Z,21
2018-10-02T02:43:43.340Z,21
2018-10-02T02:44:48.322Z,21
2018-10-02T02:45:53.741Z,21
2018-10-02T02:46:59.178Z,21
2018-10-02T02:48:04.079Z,21
2018-10-02T02:49:09.483Z,21
2018-10-02T02:50:14.913Z,21
2018-10-02T02:51:20.092Z,21
2018-10-02T02:52:26.066Z,21
2018-10-02T02:53:31.772Z,21
2018-10-02T02:54:37.228Z,21
2018-10-02T02:55:42.226Z,21
2018-10-02T02:56:47.129Z,21
2018-10-02T02:57:52.861Z,21
2018-10-02T02:58:58.123Z,21
2018-10-02T03:00:03.321Z,21
2018-10-02T03:01:08.471Z,21
2018-10-02T03:02:14.022Z,21
2018-10-02T03:03:19.177Z,21
2018-10-02T03:04:24.875Z,21
2018-10-02T03:05:30.378Z,21
2018-10-02T03:06:36.033Z,20
2018-10-02T03:07:41.226Z,20
2018-10-02T03:08:46.115Z,20
2018-10-02T03:09:52.022Z,20
2018-10-02T03:10:57.192Z,20
2018-10-02T03:12:02.412Z,20
2018-10-02T03:13:07.817Z,20
2018-10-02T03:14:13.022Z,20
2018-10-02T03:15:17.893Z,20
2018-10-02T03:16:23.575Z,20
2018-10-02T03:17:28.782Z,20
2018-10-02T03:18:34.036Z,20
2018-10-02T03:19:39.479Z,20
2018-10-02T03:20:44.919Z,20
2018-10-02T03:21:50.600Z,20
2018-10-02T03:22:56.155Z,20
2018-10-02T03:24:01.657Z,20
2018-10-02T03:25:06.641Z,20
2018-10-02T03:26:11.580Z,20
2018-10-02T03:27:16.915Z,20
2018-10-02T03:28:22.595Z,20
2018-10-02T03:29:27.509Z,20
2018-10-02T03:30:33.180Z,20
2018-10-02T03:31:38.328Z,20
2018-10-02T03:32:43.761Z,20
2018-10-02T03:33:49.548Z,20
2018-10-02T03:34:54.774Z,20
2018-10-02T03:35:59.361Z,20
2018-10-02T03:37:04.867Z,20
2018-10-02T03:38:10.352Z,20
2018-10-02T03:39:15.790Z,20
2018-10-02T03:40:21.553Z,20
2018-10-02T03:41:26.141Z,20
2018-10-02T03:42:31.123Z,20
2018-10-02T03:43:36.061Z,20
2018-10-02T03:44:41.346Z,20
2018-10-02T03:45:46.809Z,20
2018-10-02T03:46:52.261Z,20
2018-10-02T03:47:57.732Z,20
2018-10-02T03:49:03.275Z,20
2018-10-02T03:50:07.622Z,20
2018-10-02T03:51:12.282Z,20
2018-10-02T03:52:18.083Z,20
2018-10-02T03:53:23.289Z,20
2018-10-02T03:54:28.846Z,20
2018-10-02T03:55:34.071Z,20
2018-10-02T03:56:39.502Z,20
2018-10-02T03:57:45.353Z,20
2018-10-02T03:58:50.849Z,20
2018-10-02T03:59:55.791Z,20
2018-10-02T04:01:01.248Z,20
2018-10-02T04:02:05.917Z,22
2018-10-02T04:03:10.861Z,20
2018-10-02T04:04:16.461Z,20
2018-10-02T04:05:21.398Z,20
2018-10-02T04:06:27.481Z,20
2018-10-02T04:07:32.632Z,20
2018-10-02T04:08:37.859Z,20
2018-10-02T04:09:43.238Z,20
2018-10-02T04:10:48.738Z,21
2018-10-02T04:11:54.208Z,21
2018-10-02T04:12:59.621Z,21
2018-10-02T04:14:05.118Z,21
2018-10-02T04:15:10.024Z,21
2018-10-02T04:16:14.839Z,21
2018-10-02T04:17:20.019Z,21
2018-10-02T04:19:45.339Z,21
2018-10-02T04:20:50.763Z,21
2018-10-02T04:21:56.844Z,21
2018-10-02T04:23:02.013Z,22
2018-10-02T04:24:06.366Z,22
2018-10-02T04:25:11.883Z,22
2018-10-02T04:26:16.854Z,22
2018-10-02T04:27:21.757Z,22
2018-10-02T04:28:27.440Z,22
2018-10-02T04:29:32.833Z,22
2018-10-02T04:30:38.551Z,22
2018-10-02T04:31:43.702Z,22
2018-10-02T04:32:48.878Z,22
2018-10-02T04:33:54.690Z,22
2018-10-02T04:34:59.978Z,22
2018-10-02T04:36:05.140Z,22
2018-10-02T04:37:10.070Z,22
2018-10-02T04:38:15.226Z,22
2018-10-02T04:39:20.454Z,22
2018-10-02T04:40:26.249Z,22
2018-10-02T04:41:31.756Z,22
2018-10-02T04:42:37.203Z,22
2018-10-02T04:43:42.439Z,22
2018-10-02T04:44:47.608Z,22
2018-10-02T04:45:52.536Z,22
2018-10-02T04:46:57.676Z,22
2018-10-02T04:48:02.824Z,22
2018-10-02T04:49:08.360Z,22
2018-10-02T04:50:13.290Z,22
2018-10-02T04:51:18.417Z,22
2018-10-02T04:52:24.099Z,22
2018-10-02T04:53:29.306Z,22
2018-10-02T04:54:34.473Z,22
2018-10-02T04:55:39.481Z,22
2018-10-02T04:56:45.215Z,22
2018-10-02T04:57:51.071Z,22
2018-10-02T04:58:56.504Z,22
2018-10-02T05:00:01.691Z,22
2018-10-02T05:01:06.935Z,22
2018-10-02T05:02:12.454Z,22
2018-10-02T05:03:18.021Z,22
2018-10-02T05:04:23.786Z,22
2018-10-02T05:05:28.940Z,22
2018-10-02T05:06:34.513Z,22
2018-10-02T05:07:39.979Z,22
2018-10-02T05:08:45.354Z,22
2018-10-02T05:09:51.858Z,22
2018-10-02T05:10:57.005Z,22
2018-10-02T05:12:01.909Z,22
2018-10-02T05:13:06.839Z,23
2018-10-02T05:14:12.394Z,23
2018-10-02T05:15:17.601Z,23
2018-10-02T05:16:23.192Z,23
2018-10-02T05:17:28.354Z,23
2018-10-02T05:18:34.009Z,22
2018-10-02T05:19:39.463Z,23
2018-10-02T05:20:44.149Z,23
2018-10-02T05:21:50.555Z,23
2018-10-02T05:22:55.714Z,22
2018-10-02T05:24:00.413Z,22
2018-10-02T05:25:05.958Z,23
2018-10-02T05:26:11.464Z,23
2018-10-02T05:27:16.480Z,23
2018-10-02T05:28:22.657Z,23
2018-10-02T05:29:27.827Z,23
2018-10-02T05:30:33.711Z,23
2018-10-02T05:31:39.142Z,22
2018-10-02T05:32:44.360Z,22
2018-10-02T05:33:50.033Z,22
2018-10-02T05:34:55.387Z,23
2018-10-02T05:36:00.938Z,23
2018-10-02T05:37:06.708Z,23
2018-10-02T05:38:12.236Z,23
2018-10-02T05:39:17.685Z,23
2018-10-02T05:40:23.587Z,23
2018-10-02T05:41:29.019Z,23
2018-10-02T05:42:34.772Z,23
2018-10-02T05:43:40.429Z,23
2018-10-02T05:44:46.187Z,23
2018-10-02T05:45:52.078Z,23
2018-10-02T05:46:56.661Z,23
2018-10-02T05:48:02.091Z,23
2018-10-02T05:49:07.360Z,23
2018-10-02T05:50:12.511Z,23
2018-10-02T05:51:17.939Z,23
2018-10-02T05:52:23.617Z,23
2018-10-02T05:53:28.553Z,23
2018-10-02T05:54:33.971Z,23
2018-10-02T05:55:39.115Z,23
2018-10-02T05:56:43.980Z,23
2018-10-02T05:57:49.280Z,23
2018-10-02T05:58:54.750Z,23
2018-10-02T05:59:59.898Z,23
2018-10-02T06:01:05.311Z,23
2018-10-02T06:02:10.488Z,23
2018-10-02T06:03:16.041Z,23
2018-10-02T06:04:21.367Z,23
2018-10-02T06:05:26.235Z,23
2018-10-02T06:06:31.706Z,23
2018-10-02T06:07:37.465Z,23
2018-10-02T06:08:42.896Z,23
2018-10-02T06:09:48.330Z,23
2018-10-02T06:10:54.095Z,23
2018-10-02T06:11:59.561Z,23
2018-10-02T06:13:05.121Z,23
2018-10-02T06:14:10.279Z,23
2018-10-02T06:15:14.692Z,23
2018-10-02T06:16:20.285Z,23
2018-10-02T06:17:24.946Z,23
2018-10-02T06:18:30.080Z,23
2018-10-02T06:19:35.365Z,23
2018-10-02T06:20:40.688Z,23
2018-10-02T06:21:46.057Z,23
2018-10-02T06:22:50.960Z,23
2018-10-02T06:23:56.306Z,23
2018-10-02T06:25:02.010Z,23
2018-10-02T06:26:07.257Z,23
2018-10-02T06:27:11.866Z,23
2018-10-02T06:28:17.302Z,23
2018-10-02T06:29:22.825Z,23
2018-10-02T06:30:28.249Z,23
2018-10-02T06:31:33.476Z,23
2018-10-02T06:32:38.416Z,23
2018-10-02T06:33:44.215Z,23
2018-10-02T06:34:49.586Z,23
2018-10-02T06:35:54.600Z,23
2018-10-02T06:37:00.139Z,23
2018-10-02T06:38:05.087Z,23
2018-10-02T06:39:10.626Z,23
2018-10-02T06:40:16.454Z,23
2018-10-02T06:41:20.752Z,24
2018-10-02T06:42:40.621Z,24
2018-10-02T06:43:46.041Z,24
2018-10-02T06:44:52.273Z,24
2018-10-02T06:45:58.066Z,24
2018-10-02T06:47:02.917Z,24
2018-10-02T06:48:07.875Z,24
2018-10-02T06:49:13.622Z,24
2018-10-02T06:50:19.082Z,24
2018-10-02T06:51:24.761Z,24
2018-10-02T06:52:44.878Z,24
2018-10-02T06:53:51.858Z,24
2018-10-02T06:54:57.620Z,24
2018-10-02T06:56:02.271Z,24
2018-10-02T06:57:07.894Z,24
2018-10-02T06:58:13.765Z,24
2018-10-02T06:59:19.087Z,24
2018-10-02T07:00:24.493Z,24
2018-10-02T07:01:45.015Z,24
2018-10-02T07:02:50.179Z,24
2018-10-02T07:03:55.445Z,24
2018-10-02T07:05:00.587Z,24
2018-10-02T07:06:06.348Z,24
2018-10-02T07:07:11.552Z,24
2018-10-02T07:08:17.014Z,24
2018-10-02T07:09:22.172Z,24
2018-10-02T07:10:28.064Z,24
2018-10-02T07:11:33.287Z,24
2018-10-02T07:12:39.007Z,24
2018-10-02T07:13:44.390Z,24
2018-10-02T07:14:49.284Z,24
2018-10-02T07:15:54.881Z,24
2018-10-02T07:17:00.030Z,24
2018-10-02T07:18:05.538Z,24
2018-10-02T07:19:11.179Z,24
2018-10-02T07:20:16.372Z,24
2018-10-02T07:21:22.066Z,24
2018-10-02T07:22:27.651Z,24
2018-10-02T07:23:32.248Z,24
2018-10-02T07:24:37.652Z,24
2018-10-02T07:25:43.005Z,24
2018-10-02T07:26:48.010Z,24
2018-10-02T07:27:55.934Z,24
2018-10-02T07:29:01.894Z,24
2018-10-02T07:30:06.496Z,24
2018-10-02T07:31:11.717Z,24
2018-10-02T07:32:16.604Z,24
2018-10-02T07:33:21.845Z,24
2018-10-02T07:34:27.305Z,24
2018-10-02T07:35:32.754Z,24
2018-10-02T07:36:38.703Z,24
2018-10-02T07:37:44.458Z,24
2018-10-02T07:38:49.952Z,24
2018-10-02T07:39:55.551Z,24
2018-10-02T07:41:01.105Z,24
2018-10-02T07:42:05.862Z,24
2018-10-02T07:43:11.626Z,24
2018-10-02T07:44:16.885Z,24
2018-10-02T07:45:22.109Z,24
2018-10-02T07:46:27.530Z,24
2018-10-02T07:47:33.192Z,25
2018-10-02T07:48:39.195Z,25
2018-10-02T07:49:44.432Z,24
2018-10-02T07:50:49.989Z,24
2018-10-02T07:51:55.225Z,25
2018-10-02T07:53:00.372Z,24
2018-10-02T07:54:06.194Z,24
2018-10-02T07:55:12.202Z,25
2018-10-02T07:56:17.354Z,24
2018-10-02T07:57:22.642Z,25
2018-10-02T07:58:28.165Z,25
2018-10-02T07:59:33.202Z,25
2018-10-02T08:00:39.040Z,25
2018-10-02T08:01:44.503Z,25
2018-10-02T08:02:50.210Z,25
2018-10-02T08:03:55.546Z,25
2018-10-02T08:05:00.590Z,25
2018-10-02T08:06:06.954Z,25
2018-10-02T08:07:12.806Z,25
2018-10-02T08:08:17.996Z,25
2018-10-02T08:09:23.517Z,25
2018-10-02T08:10:28.800Z,25
2018-10-02T08:11:34.318Z,25
2018-10-02T08:12:39.779Z,25
2018-10-02T08:13:45.273Z,25
2018-10-02T08:14:50.785Z,25
2018-10-02T08:15:56.408Z,25
2018-10-02T08:17:01.277Z,25
2018-10-02T08:18:06.285Z,25
2018-10-02T08:19:11.074Z,25
2018-10-02T08:20:16.281Z,25
2018-10-02T08:21:21.204Z,25
2018-10-02T08:22:41.005Z,25
2018-10-02T08:23:46.176Z,25
2018-10-02T08:24:52.437Z,25
2018-10-02T08:25:57.333Z,25
2018-10-02T08:27:02.731Z,25
2018-10-02T08:28:09.261Z,25
2018-10-02T08:29:14.997Z,25
2018-10-02T08:30:20.273Z,25
2018-10-02T08:31:40.439Z,25
2018-10-02T08:32:46.283Z,25
2018-10-02T08:33:51.792Z,25
2018-10-02T08:34:56.996Z,25
2018-10-02T08:36:02.655Z,25
2018-10-02T08:37:08.435Z,25
2018-10-02T08:38:13.882Z,25
2018-10-02T08:39:19.104Z,25
2018-10-02T08:40:24.254Z,25
2018-10-02T08:41:28.567Z,25
2018-10-02T08:42:34.113Z,25
2018-10-02T08:43:39.233Z,25
2018-10-02T08:44:45.948Z,25
2018-10-02T08:45:52.247Z,25
2018-10-02T08:46:57.495Z,25
2018-10-02T08:48:02.458Z,25
2018-10-02T08:49:23.690Z,25
2018-10-02T08:50:35.352Z,25
2018-10-02T08:51:42.066Z,25
2018-10-02T08:52:47.681Z,25
2018-10-02T08:53:54.390Z,25
2018-10-02T08:55:00.229Z,25
2018-10-02T08:56:04.843Z,25
2018-10-02T08:57:09.729Z,25
2018-10-02T08:58:20.739Z,25
2018-10-02T08:59:25.614Z,25
2018-10-02T09:00:31.165Z,25
2018-10-02T09:01:36.719Z,25
2018-10-02T09:02:41.305Z,25
2018-10-02T09:03:47.048Z,25
2018-10-02T09:04:52.517Z,25
2018-10-02T09:05:57.768Z,25
2018-10-02T09:07:02.679Z,25
2018-10-02T09:08:07.987Z,25
2018-10-02T09:09:13.418Z,25
2018-10-02T09:10:18.958Z,25
2018-10-02T09:11:24.014Z,25
2018-10-02T09:12:29.681Z,25
2018-10-02T09:13:35.336Z,25
2018-10-02T09:14:40.815Z,25
2018-10-02T09:15:47.133Z,25
2018-10-02T09:16:52.805Z,25
2018-10-02T09:17:57.234Z,25
2018-10-02T09:19:02.590Z,25
2018-10-02T09:20:08.356Z,25
2018-10-02T09:21:13.805Z,25
2018-10-02T09:22:19.019Z,25
2018-10-02T09:23:23.623Z,25
2018-10-02T09:24:29.349Z,25
2018-10-02T09:25:34.781Z,25
2018-10-02T09:26:40.291Z,25
2018-10-02T09:27:45.563Z,25
2018-10-02T09:28:51.067Z,25
2018-10-02T09:29:56.732Z,25
2018-10-02T09:31:02.457Z,25
2018-10-02T09:32:08.222Z,25
2018-10-02T09:33:13.379Z,25
2018-10-02T09:34:18.601Z,25
2018-10-02T09:35:24.032Z,25
2018-10-02T09:36:29.580Z,25
2018-10-02T09:37:35.002Z,25
2018-10-02T09:38:40.452Z,25
2018-10-02T09:39:46.344Z,25
2018-10-02T09:40:51.632Z,25
2018-10-02T09:41:56.227Z,25
2018-10-02T09:43:02.142Z,25
2018-10-02T09:44:07.240Z,25
2018-10-02T09:45:12.215Z,25
2018-10-02T09:46:18.046Z,25
2018-10-02T09:47:22.967Z,25
2018-10-02T09:48:27.946Z,25
2018-10-02T09:49:32.844Z,25
2018-10-02T09:50:38.522Z,25
2018-10-02T09:51:44.811Z,25
2018-10-02T09:52:50.433Z,25
2018-10-02T09:53:55.620Z,25
2018-10-02T09:55:00.983Z,25
2018-10-02T09:56:06.960Z,25
2018-10-02T09:57:12.229Z,25
2018-10-02T09:58:17.858Z,25
2018-10-02T09:59:23.036Z,25
2018-10-02T10:00:28.548Z,25
2018-10-02T10:01:33.995Z,25
2018-10-02T10:02:39.151Z,25
2018-10-02T10:03:45.914Z,25
2018-10-02T10:04:51.096Z,25
2018-10-02T10:05:56.269Z,25
2018-10-02T10:07:01.401Z,25
2018-10-02T10:08:06.000Z,25
2018-10-02T10:09:11.160Z,25
2018-10-02T10:10:16.334Z,25
2018-10-02T10:11:21.861Z,25
2018-10-02T10:12:27.359Z,25
2018-10-02T10:13:32.871Z,25
2018-10-02T10:14:38.419Z,25
2018-10-02T10:15:44.307Z,25
2018-10-02T10:16:49.819Z,25
2018-10-02T10:17:56.226Z,25
2018-10-02T10:19:01.645Z,25
2018-10-02T10:20:05.962Z,25
2018-10-02T10:21:10.875Z,25
2018-10-02T10:22:15.904Z,25
2018-10-02T10:23:21.441Z,25
2018-10-02T10:24:27.268Z,25
2018-10-02T10:25:31.851Z,25
2018-10-02T10:26:37.366Z,25
2018-10-02T10:27:43.715Z,25
2018-10-02T10:28:48.626Z,25
2018-10-02T10:29:53.941Z,25
2018-10-02T10:30:59.167Z,25
2018-10-02T10:32:04.314Z,25
2018-10-02T10:33:09.499Z,25
2018-10-02T10:34:15.280Z,25
2018-10-02T10:35:20.170Z,25
2018-10-02T10:36:40.432Z,25
2018-10-02T10:37:45.863Z,25
2018-10-02T10:38:51.668Z,25
2018-10-02T10:39:57.235Z,25
2018-10-02T10:41:02.288Z,25
2018-10-02T10:42:07.850Z,25
2018-10-02T10:43:13.537Z,25
2018-10-02T10:44:18.990Z,25
2018-10-02T10:45:23.913Z,25
2018-10-02T10:46:30.585Z,25
2018-10-02T10:47:35.720Z,25
2018-10-02T10:48:41.505Z,25
2018-10-02T10:49:46.428Z,25
2018-10-02T10:50:51.914Z,25
2018-10-02T10:51:57.067Z,25
2018-10-02T10:53:02.477Z,25
2018-10-02T10:54:07.364Z,25
2018-10-02T10:55:12.859Z,25
2018-10-02T10:56:18.481Z,25
2018-10-02T10:57:24.075Z,25
2018-10-02T10:58:43.639Z,25
2018-10-02T10:59:48.428Z,25
2018-10-02T11:00:54.327Z,25
2018-10-02T11:01:59.768Z,25
2018-10-02T11:03:05.529Z,25
2018-10-02T11:04:11.691Z,25
2018-10-02T11:05:16.926Z,25
2018-10-02T11:06:22.356Z,25
2018-10-02T11:07:27.371Z,25
2018-10-02T11:08:32.276Z,25
2018-10-02T11:09:37.851Z,25
2018-10-02T11:10:43.379Z,25
2018-10-02T11:11:48.620Z,25
2018-10-02T11:12:53.757Z,25
2018-10-02T11:13:58.957Z,25
2018-10-02T11:15:03.858Z,25
2018-10-02T11:16:09.630Z,25
2018-10-02T11:17:15.064Z,25
2018-10-02T11:18:20.279Z,26
2018-10-02T11:19:25.684Z,25
2018-10-02T11:20:30.604Z,25
2018-10-02T11:21:36.295Z,26
2018-10-02T11:22:41.001Z,26
2018-10-02T11:23:46.520Z,26
2018-10-02T11:24:51.139Z,26
2018-10-02T11:25:56.617Z,26
2018-10-02T11:27:01.821Z,26
2018-10-02T11:28:07.604Z,26
2018-10-02T11:29:12.181Z,26
2018-10-02T11:30:17.388Z,26
2018-10-02T11:31:23.415Z,26
2018-10-02T11:32:28.541Z,26
2018-10-02T11:33:33.390Z,26
2018-10-02T11:34:38.815Z,26
2018-10-02T11:35:44.350Z,26
2018-10-02T11:36:49.494Z,26
2018-10-02T11:37:54.650Z,26
2018-10-02T11:39:00.355Z,26
2018-10-02T11:40:05.281Z,26
2018-10-02T11:41:10.494Z,26
2018-10-02T11:42:15.922Z,26
2018-10-02T11:43:22.123Z,26
2018-10-02T11:44:27.410Z,26
2018-10-02T11:45:33.306Z,26
2018-10-02T11:46:37.895Z,26
2018-10-02T11:47:42.757Z,26
2018-10-02T11:48:48.724Z,26
2018-10-02T11:49:53.954Z,26
2018-10-02T11:50:59.987Z,26
2018-10-02T11:52:05.464Z,26
2018-10-02T11:53:10.904Z,26
2018-10-02T11:54:15.763Z,26
2018-10-02T11:55:21.837Z,26
2018-10-02T11:56:27.927Z,26
2018-10-02T11:57:33.377Z,26
2018-10-02T11:58:38.845Z,26
2018-10-02T11:59:44.335Z,26
2018-10-02T12:00:50.223Z,26
2018-10-02T12:01:56.129Z,26
2018-10-02T12:03:01.272Z,26
2018-10-02T12:04:07.026Z,27
2018-10-02T12:05:12.221Z,27
2018-10-02T12:06:17.453Z,27
2018-10-02T12:07:23.142Z,27
2018-10-02T12:08:28.577Z,27
2018-10-02T12:09:34.406Z,27
2018-10-02T12:10:39.572Z,27
2018-10-02T12:11:44.466Z,27
2018-10-02T12:12:49.929Z,27
2018-10-02T12:13:55.539Z,27
2018-10-02T12:15:02.126Z,27
2018-10-02T12:16:07.116Z,27
2018-10-02T12:17:12.006Z,27
2018-10-02T12:18:17.469Z,27
2018-10-02T12:19:23.347Z,27
2018-10-02T12:20:28.804Z,27
2018-10-02T12:21:34.589Z,27
2018-10-02T12:22:39.509Z,27
2018-10-02T12:23:45.179Z,27
2018-10-02T12:24:51.137Z,27
2018-10-02T12:25:56.590Z,27
2018-10-02T12:27:01.818Z,27
2018-10-02T12:28:06.815Z,27
2018-10-02T12:29:12.255Z,27
2018-10-02T12:30:17.715Z,27
2018-10-02T12:31:22.657Z,27
2018-10-02T12:32:27.851Z,27
2018-10-02T12:33:33.565Z,27
2018-10-02T12:34:38.426Z,27
2018-10-02T12:35:43.412Z,27
2018-10-02T12:36:48.243Z,27
2018-10-02T12:37:53.392Z,27
2018-10-02T12:38:59.029Z,27
2018-10-02T12:40:05.125Z,27
2018-10-02T12:41:09.992Z,27
2018-10-02T12:42:15.263Z,27
2018-10-02T12:43:21.059Z,27
2018-10-02T12:44:26.208Z,27
2018-10-02T12:45:31.186Z,27
2018-10-02T12:46:36.045Z,27
2018-10-02T12:47:41.365Z,27
2018-10-02T12:48:46.788Z,27
2018-10-02T12:49:51.747Z,27
2018-10-02T12:50:56.897Z,27
2018-10-02T12:52:02.300Z,27
2018-10-02T12:53:07.570Z,27
2018-10-02T12:54:13.634Z,27
2018-10-02T12:55:18.798Z,27
2018-10-02T12:56:24.315Z,27
2018-10-02T12:57:29.531Z,27
2018-10-02T12:58:34.683Z,27
2018-10-02T12:59:40.160Z,27
2018-10-02T13:00:45.079Z,27
2018-10-02T13:01:50.023Z,27
2018-10-02T13:02:55.455Z,27
2018-10-02T13:04:01.308Z,27
2018-10-02T13:05:06.461Z,27
2018-10-02T13:06:11.667Z,27
2018-10-02T13:07:17.526Z,27
2018-10-02T13:08:22.751Z,27
2018-10-02T13:09:28.822Z,27
2018-10-02T13:10:33.961Z,27
2018-10-02T13:11:39.111Z,27
2018-10-02T13:12:44.904Z,27
2018-10-02T13:13:50.044Z,27
2018-10-02T13:14:54.946Z,27
2018-10-02T13:16:00.120Z,27
2018-10-02T13:17:04.982Z,27
2018-10-02T13:18:10.222Z,27
2018-10-02T13:19:16.017Z,27
2018-10-02T13:20:21.209Z,27
2018-10-02T13:21:26.623Z,27
2018-10-02T13:22:31.301Z,27
2018-10-02T13:23:36.627Z,27
2018-10-02T13:24:42.388Z,27
2018-10-02T13:25:47.467Z,27
2018-10-02T13:26:52.910Z,27
2018-10-02T13:27:58.557Z,27
2018-10-02T13:29:03.713Z,28
2018-10-02T13:30:08.523Z,27
2018-10-02T13:31:13.664Z,27
2018-10-02T13:32:19.267Z,28
2018-10-02T13:33:23.804Z,28
2018-10-02T13:34:43.837Z,28
2018-10-02T13:35:50.241Z,28
2018-10-02T13:36:55.677Z,28
2018-10-02T13:38:00.930Z,28
2018-10-02T13:39:06.165Z,28
2018-10-02T13:40:11.612Z,28
2018-10-02T13:41:17.097Z,28
2018-10-02T13:42:22.251Z,28
2018-10-02T13:43:28.313Z,28
2018-10-02T13:44:33.439Z,28
2018-10-02T13:45:38.818Z,28
2018-10-02T13:46:44.287Z,28
2018-10-02T13:47:49.735Z,28
2018-10-02T13:48:55.417Z,28
2018-10-02T13:50:00.489Z,28
2018-10-02T13:51:05.670Z,28
2018-10-02T13:52:11.558Z,28
2018-10-02T13:53:17.102Z,28
2018-10-02T13:54:21.777Z,28
2018-10-02T13:55:27.178Z,28
2018-10-02T13:56:32.606Z,28
2018-10-02T13:57:38.336Z,28
2018-10-02T13:58:43.828Z,28
2018-10-02T13:59:49.311Z,28
2018-10-02T14:00:55.009Z,28
2018-10-02T14:02:00.205Z,28
2018-10-02T14:03:05.693Z,28
2018-10-02T14:04:11.106Z,28
2018-10-02T14:05:16.248Z,28
2018-10-02T14:06:21.423Z,28
2018-10-02T14:07:26.989Z,28
2018-10-02T14:08:32.159Z,28
2018-10-02T14:09:37.717Z,28
2018-10-02T14:10:43.181Z,28
2018-10-02T14:11:48.489Z,28
2018-10-02T14:12:54.184Z,28
2018-10-02T14:13:59.664Z,28
2018-10-02T14:15:04.309Z,28
2018-10-02T14:16:09.895Z,28
2018-10-02T14:17:14.828Z,28
2018-10-02T14:18:19.414Z,28
2018-10-02T14:19:24.507Z,28
2018-10-02T14:20:28.883Z,28
2018-10-02T14:21:34.130Z,28
2018-10-02T14:22:40.189Z,28
2018-10-02T14:23:45.706Z,28
2018-10-02T14:24:50.901Z,28
2018-10-02T14:25:56.385Z,28
2018-10-02T14:27:02.200Z,28
2018-10-02T14:28:07.486Z,28
2018-10-02T14:29:13.112Z,28
2018-10-02T14:30:18.256Z,28
2018-10-02T14:31:23.368Z,28
2018-10-02T14:32:27.700Z,28
2018-10-02T14:33:33.500Z,28
2018-10-02T14:34:38.706Z,28
2018-10-02T14:35:44.035Z,28
2018-10-02T14:36:49.520Z,29
2018-10-02T14:37:55.003Z,29
2018-10-02T14:39:00.200Z,29
2018-10-02T14:40:05.519Z,29
2018-10-02T14:41:10.706Z,29
2018-10-02T14:42:15.962Z,29
2018-10-02T14:43:21.874Z,29
2018-10-02T14:44:27.607Z,29
2018-10-02T14:45:32.766Z,29
2018-10-02T14:46:37.919Z,29
2018-10-02T14:47:43.427Z,29
2018-10-02T14:48:48.565Z,29
2018-10-02T14:49:53.540Z,29
2018-10-02T14:50:58.170Z,29
2018-10-02T14:52:03.470Z,29
2018-10-02T14:53:08.389Z,29
2018-10-02T14:54:13.617Z,29
2018-10-02T14:55:19.026Z,29
2018-10-02T14:56:24.206Z,29
2018-10-02T14:57:30.313Z,29
2018-10-02T14:58:35.203Z,29
2018-10-02T14:59:40.641Z,29
2018-10-02T15:00:45.871Z,29
2018-10-02T15:01:51.305Z,29
2018-10-02T15:02:56.510Z,29
2018-10-02T15:04:02.213Z,29
2018-10-02T15:05:07.075Z,29
2018-10-02T15:06:12.550Z,29
2018-10-02T15:07:18.430Z,29
2018-10-02T15:08:23.568Z,29
2018-10-02T15:09:28.810Z,29
2018-10-02T15:10:33.980Z,29
2018-10-02T15:11:39.532Z,29
2018-10-02T15:12:45.227Z,29
2018-10-02T15:13:50.668Z,29
2018-10-02T15:14:55.823Z,29
2018-10-02T15:16:01.618Z,29
2018-10-02T15:17:07.079Z,29
2018-10-02T15:18:12.388Z,29
2018-10-02T15:19:18.144Z,29
2018-10-02T15:20:23.583Z,29
2018-10-02T15:21:28.985Z,29
2018-10-02T15:22:34.174Z,29
2018-10-02T15:23:38.570Z,29
2018-10-02T15:24:44.420Z,29
2018-10-02T15:25:49.362Z,29
2018-10-02T15:26:54.798Z,29
2018-10-02T15:28:00.236Z,29
2018-10-02T15:29:05.462Z,29
2018-10-02T15:30:10.899Z,29
2018-10-02T15:31:16.112Z,29
2018-10-02T15:32:21.180Z,29
2018-10-02T15:33:26.621Z,29
2018-10-02T15:34:31.491Z,29
2018-10-02T15:35:36.665Z,29
2018-10-02T15:36:42.147Z,29